Aérodrome :
LOGIN :

S'inscrire | Disclaimer

   EN    FR    IT 

 










Légende :    VFR   VFR Marginal   IFR   IFR Intensif   IFR Très Intensif
Visi : 
Plafond : 
>= 8 km
>= 3000ft
5 à 8 km
1000 à 3000 ft
1500m à 5 km
500 à 1000 ft
800 à 1500m
200 à 500 ft
< 800m
< 200 ft
Symboles :   Orages  Brouillard  Fortes neiges  Fortes précipitations  Vent > 20 kt
SIGMETs :   Divers  Orages  Givrage  Turbulence  Onde Orograph.  Cendres Volcan.







- Altitude de l'aérodrome : 686 ft


LYKV - Ladevci

DERNIER METAR :
  • 190300Z 00000KT 3000 BR BKN013 OVC025 M02/M02 Q1029 NOSIG

METARs EXPIRÉS :
  • 190230Z 05001KT 4000 BR BKN015 OVC025 M02/M02 Q1029 NOSIG
  • 190200Z 12001KT 4000 BR BKN015 OVC025 M02/M02 Q1029 NOSIG
  • 190130Z 15002KT 4000 BR BKN015 OVC025 M02/M02 Q1029 NOSIG
  • 190100Z 15002KT 4000 BR BKN015 OVC025 M02/M02 Q1029 NOSIG
  • 190030Z 16002KT 4000 BR BKN015 OVC025 M02/M02 Q1029 NOSIG

TAF TAF LYKV
Valide du 19 à 00h jusqu'au 20 à 00h UTC


182300Z 1900/1924 33005KT 4000 BR BKN010 OVC025 TX00/1913Z TNM05/1906Z
TEMPO 1900/1906 1500 BKN005 OVC025
BECMG 1911/1913 6000 NSW SCT015 SCT027
BECMG 1921/1923 1500 BR
Pas de NOTAMs connus pour ce terrain.



MET'MAP, la Météo Aéronautique d'un coup d'oeil ! - Copyright ORBIFLY Décembre 2007 - Disclaimer

ORBIFLY MET'MAP TEAM :

Programmation & Développement : Alexandra Zaïnal
Conception & Développement : Baudouin d'Aumeries
Co-Programmation & Développement : Marc-Olivier Méhu
Soutien technique & logistique : Manuel Goepfert

Contact : metmap@orbifly.com




SOURCES & CREDITS :

   NOAA